Aviation Digital Data Service (ADDS)

Output produced by METARs form (1857 UTC 24 April 2017)
found at http://aviationweather.gov/adds/metars/
 
KBDR 241740Z 2418/2518 13008KT P6SM BKN100 
     FM242200 11009KT P6SM SCT050 BKN080 
     FM250300 07009KT P6SM BKN080 
     FM250600 06013KT 5SM -RA BR BKN015 OVC040 
     FM250900 06014G21KT 2SM -RA BR BKN007 OVC010 
     FM251300 06019G28KT 2SM -RA BR OVC006